sensor_id;sensor_type;location;lat;lon;timestamp;P1;durP1;ratioP1;P2;durP2;ratioP2
49800;SDS011;35698;50.232;30.540;2022-07-12T04:09:26;3.27;;;0.96;;
49800;SDS011;35698;50.232;30.540;2022-07-12T04:10:30;3.01;;;1.11;;
49800;SDS011;35698;50.232;30.540;2022-07-12T04:12:47;1.56;;;1.15;;
49800;SDS011;35698;50.232;30.540;2022-07-12T04:13:50;2.66;;;0.97;;
49800;SDS011;35698;50.232;30.540;2022-07-12T04:14:54;2.16;;;1.13;;
49800;SDS011;35698;50.232;30.540;2022-07-12T04:15:57;2.67;;;1.27;;
49800;SDS011;35698;50.232;30.540;2022-07-12T04:17:01;2.94;;;1.14;;
49800;SDS011;35698;50.232;30.540;2022-07-12T04:18:04;3.29;;;1.28;;
49800;SDS011;35698;50.232;30.540;2022-07-12T04:24:57;2.64;;;1.12;;
49800;SDS011;35698;50.232;30.540;2022-07-12T04:26:01;5.31;;;1.36;;
49800;SDS011;35698;50.232;30.540;2022-07-12T04:27:04;4.14;;;1.27;;
49800;SDS011;35698;50.232;30.540;2022-07-12T04:28:07;1.58;;;1.15;;
49800;SDS011;35698;50.232;30.540;2022-07-12T04:29:11;4.28;;;1.45;;
49800;SDS011;35698;50.232;30.540;2022-07-12T04:30:16;1.80;;;1.38;;
49800;SDS011;35698;50.232;30.540;2022-07-12T04:31:19;1.94;;;1.32;;
49800;SDS011;35698;50.232;30.540;2022-07-12T04:32:23;6.57;;;1.82;;
49800;SDS011;35698;50.232;30.540;2022-07-12T04:33:26;3.29;;;1.72;;
49800;SDS011;35698;50.232;30.540;2022-07-12T04:34:30;11.69;;;2.29;;
49800;SDS011;35698;50.232;30.540;2022-07-12T04:35:33;6.29;;;1.27;;
49800;SDS011;35698;50.232;30.540;2022-07-12T04:37:59;3.12;;;1.23;;
49800;SDS011;35698;50.232;30.540;2022-07-12T04:39:03;2.24;;;1.28;;
49800;SDS011;35698;50.232;30.540;2022-07-12T04:40:07;1.79;;;1.40;;
49800;SDS011;35698;50.232;30.540;2022-07-12T04:41:10;3.10;;;1.44;;
49800;SDS011;35698;50.232;30.540;2022-07-12T04:42:13;6.23;;;1.75;;
49800;SDS011;35698;50.232;30.540;2022-07-12T04:43:17;1.51;;;1.41;;
49800;SDS011;35698;50.232;30.540;2022-07-12T04:45:44;4.71;;;1.56;;
49800;SDS011;35698;50.232;30.540;2022-07-12T04:46:48;2.43;;;1.52;;
49800;SDS011;35698;50.232;30.540;2022-07-12T04:47:51;3.02;;;1.19;;
49800;SDS011;35698;50.232;30.540;2022-07-12T04:48:55;2.16;;;1.22;;
49800;SDS011;35698;50.232;30.540;2022-07-12T04:49:58;2.07;;;1.41;;
49800;SDS011;35698;50.232;30.540;2022-07-12T04:51:01;3.20;;;1.29;;
49800;SDS011;35698;50.232;30.540;2022-07-12T04:52:05;2.77;;;1.37;;
49800;SDS011;35698;50.232;30.540;2022-07-12T04:53:08;2.27;;;1.42;;
49800;SDS011;35698;50.232;30.540;2022-07-12T04:54:12;1.29;;;1.24;;
49800;SDS011;35698;50.232;30.540;2022-07-12T04:55:15;4.06;;;1.43;;
49800;SDS011;35698;50.232;30.540;2022-07-12T04:56:20;2.86;;;1.67;;
49800;SDS011;35698;50.232;30.540;2022-07-12T04:57:23;1.52;;;1.11;;
49800;SDS011;35698;50.232;30.540;2022-07-12T04:58:28;4.63;;;1.80;;
49800;SDS011;35698;50.232;30.540;2022-07-12T04:59:31;2.24;;;1.32;;
49800;SDS011;35698;50.232;30.540;2022-07-12T05:00:34;1.47;;;1.19;;
49800;SDS011;35698;50.232;30.540;2022-07-12T05:01:38;2.23;;;1.22;;
49800;SDS011;35698;50.232;30.540;2022-07-12T05:02:41;1.54;;;1.44;;
49800;SDS011;35698;50.232;30.540;2022-07-12T05:03:45;3.09;;;1.32;;
49800;SDS011;35698;50.232;30.540;2022-07-12T05:11:00;4.49;;;1.23;;
49800;SDS011;35698;50.232;30.540;2022-07-12T05:12:04;1.72;;;1.24;;
49800;SDS011;35698;50.232;30.540;2022-07-12T05:13:07;4.06;;;1.48;;
49800;SDS011;35698;50.232;30.540;2022-07-12T05:14:10;4.54;;;1.35;;
49800;SDS011;35698;50.232;30.540;2022-07-12T05:15:14;0.90;;;0.90;;
49800;SDS011;35698;50.232;30.540;2022-07-12T05:16:18;6.71;;;1.58;;
49800;SDS011;35698;50.232;30.540;2022-07-12T05:17:21;2.17;;;1.24;;
49800;SDS011;35698;50.232;30.540;2022-07-12T05:18:28;2.27;;;1.42;;
49800;SDS011;35698;50.232;30.540;2022-07-12T05:19:31;2.22;;;1.31;;
49800;SDS011;35698;50.232;30.540;2022-07-12T05:20:36;3.00;;;1.29;;
49800;SDS011;35698;50.232;30.540;2022-07-12T05:21:39;6.19;;;1.42;;
49800;SDS011;35698;50.232;30.540;2022-07-12T05:22:42;3.29;;;1.34;;
49800;SDS011;35698;50.232;30.540;2022-07-12T05:23:46;2.42;;;1.22;;
49800;SDS011;35698;50.232;30.540;2022-07-12T05:24:49;1.46;;;1.01;;
49800;SDS011;35698;50.232;30.540;2022-07-12T05:25:52;12.40;;;1.79;;
49800;SDS011;35698;50.232;30.540;2022-07-12T05:26:56;3.15;;;1.15;;
49800;SDS011;35698;50.232;30.540;2022-07-12T05:28:00;1.49;;;1.04;;
49800;SDS011;35698;50.232;30.540;2022-07-12T05:29:04;5.62;;;1.09;;
49800;SDS011;35698;50.232;30.540;2022-07-12T05:30:08;4.56;;;1.36;;
49800;SDS011;35698;50.232;30.540;2022-07-12T05:31:11;1.57;;;1.30;;
49800;SDS011;35698;50.232;30.540;2022-07-12T05:32:15;3.62;;;1.27;;
49800;SDS011;35698;50.232;30.540;2022-07-12T05:33:18;1.24;;;0.77;;
49800;SDS011;35698;50.232;30.540;2022-07-12T05:34:21;3.56;;;1.16;;
49800;SDS011;35698;50.232;30.540;2022-07-12T05:35:24;1.81;;;1.24;;
49800;SDS011;35698;50.232;30.540;2022-07-12T05:36:28;3.80;;;1.10;;
49800;SDS011;35698;50.232;30.540;2022-07-12T05:37:34;3.66;;;0.90;;
49800;SDS011;35698;50.232;30.540;2022-07-12T05:38:37;3.48;;;1.18;;
49800;SDS011;35698;50.232;30.540;2022-07-12T05:39:40;1.60;;;1.17;;
49800;SDS011;35698;50.232;30.540;2022-07-12T05:40:45;1.73;;;1.17;;
49800;SDS011;35698;50.232;30.540;2022-07-12T05:41:49;2.07;;;1.14;;
49800;SDS011;35698;50.232;30.540;2022-07-12T05:42:52;3.36;;;1.14;;
49800;SDS011;35698;50.232;30.540;2022-07-12T05:43:56;3.81;;;1.02;;
49800;SDS011;35698;50.232;30.540;2022-07-12T05:44:59;4.04;;;1.25;;
49800;SDS011;35698;50.232;30.540;2022-07-12T05:46:03;3.08;;;1.34;;
49800;SDS011;35698;50.232;30.540;2022-07-12T05:47:10;2.61;;;1.18;;
49800;SDS011;35698;50.232;30.540;2022-07-12T05:48:26;5.11;;;1.04;;
49800;SDS011;35698;50.232;30.540;2022-07-12T05:49:32;1.20;;;1.11;;
49800;SDS011;35698;50.232;30.540;2022-07-12T05:50:36;1.87;;;1.03;;
49800;SDS011;35698;50.232;30.540;2022-07-12T05:51:39;2.76;;;1.26;;
49800;SDS011;35698;50.232;30.540;2022-07-12T05:52:42;3.84;;;1.31;;
49800;SDS011;35698;50.232;30.540;2022-07-12T05:53:46;4.59;;;1.00;;
49800;SDS011;35698;50.232;30.540;2022-07-12T05:54:49;4.33;;;1.11;;
49800;SDS011;35698;50.232;30.540;2022-07-12T05:55:53;1.94;;;1.05;;
49800;SDS011;35698;50.232;30.540;2022-07-12T05:57:05;2.04;;;1.22;;
49800;SDS011;35698;50.232;30.540;2022-07-12T05:58:12;1.69;;;1.08;;
49800;SDS011;35698;50.232;30.540;2022-07-12T05:59:16;4.21;;;1.57;;
49800;SDS011;35698;50.232;30.540;2022-07-12T06:00:19;2.26;;;0.93;;
49800;SDS011;35698;50.232;30.540;2022-07-12T06:01:22;1.90;;;1.12;;
49800;SDS011;35698;50.232;30.540;2022-07-12T06:02:25;1.09;;;0.99;;
49800;SDS011;35698;50.232;30.540;2022-07-12T06:27:10;3.35;;;0.98;;
49800;SDS011;35698;50.232;30.540;2022-07-12T06:28:21;2.38;;;0.83;;
49800;SDS011;35698;50.232;30.540;2022-07-12T06:42:00;2.63;;;0.93;;
49800;SDS011;35698;50.232;30.540;2022-07-12T06:43:12;2.63;;;1.17;;
49800;SDS011;35698;50.232;30.540;2022-07-12T06:44:18;0.64;;;0.64;;
49800;SDS011;35698;50.232;30.540;2022-07-12T06:45:24;1.62;;;0.71;;
49800;SDS011;35698;50.232;30.540;2022-07-12T06:46:35;2.19;;;0.83;;
49800;SDS011;35698;50.232;30.540;2022-07-12T06:47:39;3.51;;;0.83;;
49800;SDS011;35698;50.232;30.540;2022-07-12T06:48:50;1.53;;;0.92;;
49800;SDS011;35698;50.232;30.540;2022-07-12T06:50:59;2.26;;;0.79;;
49800;SDS011;35698;50.232;30.540;2022-07-12T06:52:10;0.69;;;0.69;;
49800;SDS011;35698;50.232;30.540;2022-07-12T06:53:14;5.73;;;0.90;;
49800;SDS011;35698;50.232;30.540;2022-07-12T06:54:25;0.86;;;0.66;;
49800;SDS011;35698;50.232;30.540;2022-07-12T06:55:29;4.28;;;0.96;;
49800;SDS011;35698;50.232;30.540;2022-07-12T06:56:40;4.97;;;0.90;;
49800;SDS011;35698;50.232;30.540;2022-07-12T06:57:44;1.54;;;0.80;;
49800;SDS011;35698;50.232;30.540;2022-07-12T07:00:23;0.71;;;0.71;;
49800;SDS011;35698;50.232;30.540;2022-07-12T07:01:29;2.57;;;0.74;;
49800;SDS011;35698;50.232;30.540;2022-07-12T07:02:44;2.38;;;1.11;;
49800;SDS011;35698;50.232;30.540;2022-07-12T07:03:48;3.36;;;0.71;;
49800;SDS011;35698;50.232;30.540;2022-07-12T07:04:59;1.06;;;0.77;;
49800;SDS011;35698;50.232;30.540;2022-07-12T07:06:04;3.68;;;0.95;;
49800;SDS011;35698;50.232;30.540;2022-07-12T07:07:15;5.49;;;0.82;;
49800;SDS011;35698;50.232;30.540;2022-07-12T07:08:19;1.35;;;0.86;;
49800;SDS011;35698;50.232;30.540;2022-07-12T07:09:30;0.91;;;0.72;;
49800;SDS011;35698;50.232;30.540;2022-07-12T07:10:34;3.18;;;0.82;;
49800;SDS011;35698;50.232;30.540;2022-07-12T07:11:56;1.33;;;0.55;;
49800;SDS011;35698;50.232;30.540;2022-07-12T07:13:08;1.76;;;0.79;;
49800;SDS011;35698;50.232;30.540;2022-07-12T07:14:12;1.10;;;0.93;;
49800;SDS011;35698;50.232;30.540;2022-07-12T07:15:23;1.42;;;0.53;;
49800;SDS011;35698;50.232;30.540;2022-07-12T07:16:28;5.73;;;0.80;;
49800;SDS011;35698;50.232;30.540;2022-07-12T07:17:39;1.68;;;0.87;;
49800;SDS011;35698;50.232;30.540;2022-07-12T07:18:43;4.49;;;1.06;;
49800;SDS011;35698;50.232;30.540;2022-07-12T07:20:05;2.48;;;0.68;;
49800;SDS011;35698;50.232;30.540;2022-07-12T07:21:16;0.95;;;0.53;;
49800;SDS011;35698;50.232;30.540;2022-07-12T07:22:20;1.97;;;0.68;;
49800;SDS011;35698;50.232;30.540;2022-07-12T07:23:33;1.08;;;0.53;;
49800;SDS011;35698;50.232;30.540;2022-07-12T07:24:36;2.08;;;0.70;;
49800;SDS011;35698;50.232;30.540;2022-07-12T07:25:58;3.52;;;1.26;;
49800;SDS011;35698;50.232;30.540;2022-07-12T07:27:09;1.57;;;0.74;;
49800;SDS011;35698;50.232;30.540;2022-07-12T07:28:12;0.76;;;0.70;;
49800;SDS011;35698;50.232;30.540;2022-07-12T07:29:16;3.29;;;0.91;;
49800;SDS011;35698;50.232;30.540;2022-07-12T07:30:22;0.79;;;0.66;;
49800;SDS011;35698;50.232;30.540;2022-07-12T07:32:49;2.40;;;0.68;;
49800;SDS011;35698;50.232;30.540;2022-07-12T07:33:55;0.59;;;0.59;;
49800;SDS011;35698;50.232;30.540;2022-07-12T07:34:58;0.70;;;0.53;;
49800;SDS011;35698;50.232;30.540;2022-07-12T07:36:13;4.51;;;0.53;;
49800;SDS011;35698;50.232;30.540;2022-07-12T07:37:17;5.78;;;0.70;;
49800;SDS011;35698;50.232;30.540;2022-07-12T07:38:20;0.89;;;0.49;;
49800;SDS011;35698;50.232;30.540;2022-07-12T07:39:32;0.49;;;0.45;;
49800;SDS011;35698;50.232;30.540;2022-07-12T07:42:00;0.99;;;0.60;;
49800;SDS011;35698;50.232;30.540;2022-07-12T07:43:11;2.82;;;0.71;;
49800;SDS011;35698;50.232;30.540;2022-07-12T07:44:17;2.23;;;0.80;;
49800;SDS011;35698;50.232;30.540;2022-07-12T07:45:29;15.54;;;2.34;;
49800;SDS011;35698;50.232;30.540;2022-07-12T07:46:32;0.92;;;0.60;;
49800;SDS011;35698;50.232;30.540;2022-07-12T07:47:48;2.39;;;0.65;;
49800;SDS011;35698;50.232;30.540;2022-07-12T07:48:54;4.82;;;0.73;;
49800;SDS011;35698;50.232;30.540;2022-07-12T07:50:08;2.12;;;0.76;;
49800;SDS011;35698;50.232;30.540;2022-07-12T07:51:11;1.52;;;0.98;;
49800;SDS011;35698;50.232;30.540;2022-07-12T07:52:23;2.17;;;0.69;;
49800;SDS011;35698;50.232;30.540;2022-07-12T07:53:26;1.61;;;0.70;;
49800;SDS011;35698;50.232;30.540;2022-07-12T07:54:31;3.01;;;0.89;;
49800;SDS011;35698;50.232;30.540;2022-07-12T07:55:42;1.26;;;0.62;;
49800;SDS011;35698;50.232;30.540;2022-07-12T07:56:46;2.09;;;0.73;;
49800;SDS011;35698;50.232;30.540;2022-07-12T07:58:04;1.26;;;0.77;;
49800;SDS011;35698;50.232;30.540;2022-07-12T07:59:08;2.37;;;0.85;;
49800;SDS011;35698;50.232;30.540;2022-07-12T08:00:14;5.02;;;0.61;;
49800;SDS011;35698;50.232;30.540;2022-07-12T08:01:26;0.77;;;0.39;;
49800;SDS011;35698;50.232;30.540;2022-07-12T08:02:31;2.16;;;0.54;;
49800;SDS011;35698;50.232;30.540;2022-07-12T08:03:37;2.29;;;0.53;;
49800;SDS011;35698;50.232;30.540;2022-07-12T08:04:41;0.72;;;0.72;;
49800;SDS011;35698;50.232;30.540;2022-07-12T08:05:54;8.17;;;0.74;;
49800;SDS011;35698;50.232;30.540;2022-07-12T08:07:01;1.96;;;0.67;;
49800;SDS011;35698;50.232;30.540;2022-07-12T08:08:14;2.06;;;0.71;;
49800;SDS011;35698;50.232;30.540;2022-07-12T08:09:17;4.19;;;0.80;;
49800;SDS011;35698;50.232;30.540;2022-07-12T08:10:29;1.76;;;0.61;;
49800;SDS011;35698;50.232;30.540;2022-07-12T08:11:33;1.35;;;0.54;;
49800;SDS011;35698;50.232;30.540;2022-07-12T08:12:44;1.15;;;0.69;;
49800;SDS011;35698;50.232;30.540;2022-07-12T08:13:48;2.39;;;0.69;;
49800;SDS011;35698;50.232;30.540;2022-07-12T08:15:00;0.65;;;0.61;;
49800;SDS011;35698;50.232;30.540;2022-07-12T08:16:03;1.60;;;0.75;;
49800;SDS011;35698;50.232;30.540;2022-07-12T08:17:15;1.18;;;0.59;;
49800;SDS011;35698;50.232;30.540;2022-07-12T08:18:19;2.36;;;0.72;;
49800;SDS011;35698;50.232;30.540;2022-07-12T08:19:31;2.77;;;0.65;;
49800;SDS011;35698;50.232;30.540;2022-07-12T08:20:35;1.57;;;0.75;;
49800;SDS011;35698;50.232;30.540;2022-07-12T08:21:52;3.04;;;0.78;;
49800;SDS011;35698;50.232;30.540;2022-07-12T08:22:55;0.94;;;0.70;;
49800;SDS011;35698;50.232;30.540;2022-07-12T08:24:17;1.32;;;0.74;;
49800;SDS011;35698;50.232;30.540;2022-07-12T08:25:22;2.51;;;0.71;;
49800;SDS011;35698;50.232;30.540;2022-07-12T08:26:33;5.28;;;0.92;;
49800;SDS011;35698;50.232;30.540;2022-07-12T08:27:37;3.66;;;0.76;;
49800;SDS011;35698;50.232;30.540;2022-07-12T08:28:48;4.87;;;1.19;;
49800;SDS011;35698;50.232;30.540;2022-07-12T08:29:52;2.64;;;1.14;;
49800;SDS011;35698;50.232;30.540;2022-07-12T08:31:04;6.16;;;1.35;;
49800;SDS011;35698;50.232;30.540;2022-07-12T08:32:16;2.11;;;0.90;;
49800;SDS011;35698;50.232;30.540;2022-07-12T08:33:49;3.72;;;0.89;;
49800;SDS011;35698;50.232;30.540;2022-07-12T08:35:17;7.24;;;0.93;;
49800;SDS011;35698;50.232;30.540;2022-07-12T08:36:30;3.78;;;1.19;;
49800;SDS011;35698;50.232;30.540;2022-07-12T08:37:39;2.74;;;1.10;;
49800;SDS011;35698;50.232;30.540;2022-07-12T08:38:50;2.09;;;1.17;;
49800;SDS011;35698;50.232;30.540;2022-07-12T08:39:54;3.22;;;1.16;;
49800;SDS011;35698;50.232;30.540;2022-07-12T08:41:06;3.28;;;1.09;;
49800;SDS011;35698;50.232;30.540;2022-07-12T08:42:17;3.37;;;1.18;;
49800;SDS011;35698;50.232;30.540;2022-07-12T08:43:42;4.89;;;1.05;;
49800;SDS011;35698;50.232;30.540;2022-07-12T08:44:54;2.63;;;1.07;;
49800;SDS011;35698;50.232;30.540;2022-07-12T08:46:19;3.21;;;1.25;;
49800;SDS011;35698;50.232;30.540;2022-07-12T08:47:23;3.62;;;1.10;;
49800;SDS011;35698;50.232;30.540;2022-07-12T08:48:36;8.86;;;1.19;;
49800;SDS011;35698;50.232;30.540;2022-07-12T08:49:44;5.76;;;1.21;;
49800;SDS011;35698;50.232;30.540;2022-07-12T08:51:18;6.15;;;1.23;;
49800;SDS011;35698;50.232;30.540;2022-07-12T08:53:39;3.32;;;1.14;;
49800;SDS011;35698;50.232;30.540;2022-07-12T08:54:44;1.97;;;1.14;;
49800;SDS011;35698;50.232;30.540;2022-07-12T08:57:44;2.69;;;1.44;;
49800;SDS011;35698;50.232;30.540;2022-07-12T08:58:51;0.90;;;0.90;;
49800;SDS011;35698;50.232;30.540;2022-07-12T09:00:06;4.02;;;1.59;;
49800;SDS011;35698;50.232;30.540;2022-07-12T09:01:10;3.29;;;1.15;;
49800;SDS011;35698;50.232;30.540;2022-07-12T09:02:42;2.73;;;1.56;;
49800;SDS011;35698;50.232;30.540;2022-07-12T09:03:47;1.73;;;0.94;;
49800;SDS011;35698;50.232;30.540;2022-07-12T09:06:19;3.64;;;1.03;;
49800;SDS011;35698;50.232;30.540;2022-07-12T09:07:43;1.29;;;0.71;;
49800;SDS011;35698;50.232;30.540;2022-07-12T09:08:55;2.42;;;0.88;;
49800;SDS011;35698;50.232;30.540;2022-07-12T09:10:02;2.62;;;0.94;;
49800;SDS011;35698;50.232;30.540;2022-07-12T09:11:14;5.16;;;1.01;;
49800;SDS011;35698;50.232;30.540;2022-07-12T09:12:22;3.59;;;0.85;;
49800;SDS011;35698;50.232;30.540;2022-07-12T09:13:50;1.61;;;0.91;;
49800;SDS011;35698;50.232;30.540;2022-07-12T09:15:13;1.59;;;0.83;;
49800;SDS011;35698;50.232;30.540;2022-07-12T09:16:26;1.19;;;0.78;;
49800;SDS011;35698;50.232;30.540;2022-07-12T09:17:30;0.83;;;0.83;;
49800;SDS011;35698;50.232;30.540;2022-07-12T09:18:45;2.16;;;0.88;;
49800;SDS011;35698;50.232;30.540;2022-07-12T09:19:55;1.05;;;0.66;;
49800;SDS011;35698;50.232;30.540;2022-07-12T09:21:07;1.31;;;0.77;;
49800;SDS011;35698;50.232;30.540;2022-07-12T09:22:15;2.26;;;1.63;;
49800;SDS011;35698;50.232;30.540;2022-07-12T09:23:27;5.47;;;2.22;;
49800;SDS011;35698;50.232;30.540;2022-07-12T09:24:31;0.74;;;0.70;;
49800;SDS011;35698;50.232;30.540;2022-07-12T09:25:46;3.29;;;0.86;;
49800;SDS011;35698;50.232;30.540;2022-07-12T09:26:57;4.97;;;2.34;;
49800;SDS011;35698;50.232;30.540;2022-07-12T09:28:07;2.61;;;0.72;;
49800;SDS011;35698;50.232;30.540;2022-07-12T09:29:19;2.18;;;0.84;;
49800;SDS011;35698;50.232;30.540;2022-07-12T09:30:26;1.32;;;0.81;;
49800;SDS011;35698;50.232;30.540;2022-07-12T09:32:59;2.97;;;0.83;;
49800;SDS011;35698;50.232;30.540;2022-07-12T09:34:12;1.26;;;0.78;;
49800;SDS011;35698;50.232;30.540;2022-07-12T09:35:16;1.96;;;0.59;;
49800;SDS011;35698;50.232;30.540;2022-07-12T09:36:27;0.77;;;0.67;;
49800;SDS011;35698;50.232;30.540;2022-07-12T09:37:32;6.65;;;0.73;;
49800;SDS011;35698;50.232;30.540;2022-07-12T09:38:54;3.97;;;0.58;;
49800;SDS011;35698;50.232;30.540;2022-07-12T09:40:00;3.19;;;0.96;;
49800;SDS011;35698;50.232;30.540;2022-07-12T09:41:13;3.81;;;0.61;;
49800;SDS011;35698;50.232;30.540;2022-07-12T09:42:21;3.43;;;1.02;;
49800;SDS011;35698;50.232;30.540;2022-07-12T09:43:43;0.88;;;0.81;;
49800;SDS011;35698;50.232;30.540;2022-07-12T09:44:55;2.71;;;0.84;;
49800;SDS011;35698;50.232;30.540;2022-07-12T09:45:59;2.07;;;0.58;;
49800;SDS011;35698;50.232;30.540;2022-07-12T09:47:12;1.90;;;0.83;;
49800;SDS011;35698;50.232;30.540;2022-07-12T09:48:20;4.60;;;0.71;;
49800;SDS011;35698;50.232;30.540;2022-07-12T09:49:24;5.37;;;0.67;;
49800;SDS011;35698;50.232;30.540;2022-07-12T09:50:31;5.18;;;1.13;;
49800;SDS011;35698;50.232;30.540;2022-07-12T09:51:46;4.13;;;0.81;;
49800;SDS011;35698;50.232;30.540;2022-07-12T09:52:53;4.47;;;0.79;;
49800;SDS011;35698;50.232;30.540;2022-07-12T09:54:09;2.68;;;0.54;;
49800;SDS011;35698;50.232;30.540;2022-07-12T09:55:17;4.92;;;0.50;;
49800;SDS011;35698;50.232;30.540;2022-07-12T09:56:34;0.71;;;0.39;;
49800;SDS011;35698;50.232;30.540;2022-07-12T09:57:39;2.64;;;0.32;;
49800;SDS011;35698;50.232;30.540;2022-07-12T09:58:55;0.43;;;0.42;;
49800;SDS011;35698;50.232;30.540;2022-07-12T10:00:02;2.37;;;0.32;;
49800;SDS011;35698;50.232;30.540;2022-07-12T10:01:15;6.91;;;0.41;;
49800;SDS011;35698;50.232;30.540;2022-07-12T10:02:21;1.33;;;0.57;;
49800;SDS011;35698;50.232;30.540;2022-07-12T10:03:29;0.50;;;0.31;;
49800;SDS011;35698;50.232;30.540;2022-07-12T10:04:35;2.12;;;0.41;;
49800;SDS011;35698;50.232;30.540;2022-07-12T10:05:55;1.20;;;0.40;;
49800;SDS011;35698;50.232;30.540;2022-07-12T10:06:59;3.20;;;0.36;;
49800;SDS011;35698;50.232;30.540;2022-07-12T10:08:13;1.29;;;0.28;;
49800;SDS011;35698;50.232;30.540;2022-07-12T10:09:17;1.75;;;0.25;;
49800;SDS011;35698;50.232;30.540;2022-07-12T10:10:30;2.54;;;0.30;;
49800;SDS011;35698;50.232;30.540;2022-07-12T10:11:35;1.61;;;0.40;;
49800;SDS011;35698;50.232;30.540;2022-07-12T10:12:49;0.42;;;0.20;;
49800;SDS011;35698;50.232;30.540;2022-07-12T10:13:55;2.59;;;0.39;;
49800;SDS011;35698;50.232;30.540;2022-07-12T10:15:14;0.63;;;0.42;;
49800;SDS011;35698;50.232;30.540;2022-07-12T10:16:26;1.50;;;0.28;;
49800;SDS011;35698;50.232;30.540;2022-07-12T10:17:52;0.44;;;0.37;;
49800;SDS011;35698;50.232;30.540;2022-07-12T10:20:27;1.72;;;0.62;;
49800;SDS011;35698;50.232;30.540;2022-07-12T10:21:38;0.36;;;0.32;;
49800;SDS011;35698;50.232;30.540;2022-07-12T10:22:42;1.26;;;0.60;;
49800;SDS011;35698;50.232;30.540;2022-07-12T10:23:47;0.49;;;0.33;;
49800;SDS011;35698;50.232;30.540;2022-07-12T10:24:51;0.59;;;0.40;;
49800;SDS011;35698;50.232;30.540;2022-07-12T10:27:30;3.39;;;0.53;;
49800;SDS011;35698;50.232;30.540;2022-07-12T10:30:11;4.24;;;0.67;;
49800;SDS011;35698;50.232;30.540;2022-07-12T10:31:23;0.72;;;0.31;;
49800;SDS011;35698;50.232;30.540;2022-07-12T10:32:37;1.58;;;0.76;;
49800;SDS011;35698;50.232;30.540;2022-07-12T10:33:44;0.47;;;0.39;;
49800;SDS011;35698;50.232;30.540;2022-07-12T10:35:03;1.27;;;0.21;;
49800;SDS011;35698;50.232;30.540;2022-07-12T10:36:09;1.30;;;0.51;;
49800;SDS011;35698;50.232;30.540;2022-07-12T10:37:20;0.67;;;0.56;;
49800;SDS011;35698;50.232;30.540;2022-07-12T10:38:23;2.37;;;0.34;;
49800;SDS011;35698;50.232;30.540;2022-07-12T10:40:13;4.97;;;3.38;;
49800;SDS011;35698;50.232;30.540;2022-07-12T10:41:18;2.58;;;0.42;;
49800;SDS011;35698;50.232;30.540;2022-07-12T10:42:32;0.86;;;0.29;;
49800;SDS011;35698;50.232;30.540;2022-07-12T10:43:36;1.62;;;0.36;;
49800;SDS011;35698;50.232;30.540;2022-07-12T10:45:13;2.75;;;0.42;;
49800;SDS011;35698;50.232;30.540;2022-07-12T10:46:26;0.83;;;0.44;;
49800;SDS011;35698;50.232;30.540;2022-07-12T10:47:52;3.01;;;0.42;;
49800;SDS011;35698;50.232;30.540;2022-07-12T10:49:29;2.14;;;0.30;;
49800;SDS011;35698;50.232;30.540;2022-07-12T10:53:22;1.04;;;0.28;;
49800;SDS011;35698;50.232;30.540;2022-07-12T10:54:29;4.43;;;0.78;;
49800;SDS011;35698;50.232;30.540;2022-07-12T10:55:40;3.92;;;0.36;;
49800;SDS011;35698;50.232;30.540;2022-07-12T10:56:57;1.34;;;0.27;;
49800;SDS011;35698;50.232;30.540;2022-07-12T10:58:15;0.82;;;0.37;;
49800;SDS011;35698;50.232;30.540;2022-07-12T10:59:19;1.02;;;0.32;;
49800;SDS011;35698;50.232;30.540;2022-07-12T11:00:30;0.93;;;0.27;;
49800;SDS011;35698;50.232;30.540;2022-07-12T11:01:39;2.92;;;0.44;;
49800;SDS011;35698;50.232;30.540;2022-07-12T11:03:01;0.59;;;0.32;;
49800;SDS011;35698;50.232;30.540;2022-07-12T11:04:14;0.55;;;0.50;;
49800;SDS011;35698;50.232;30.540;2022-07-12T11:05:24;3.90;;;0.33;;
49800;SDS011;35698;50.232;30.540;2022-07-12T11:06:38;0.41;;;0.21;;
49800;SDS011;35698;50.232;30.540;2022-07-12T11:07:42;1.83;;;0.38;;
49800;SDS011;35698;50.232;30.540;2022-07-12T11:09:02;3.15;;;0.76;;
49800;SDS011;35698;50.232;30.540;2022-07-12T11:10:12;4.24;;;0.41;;
49800;SDS011;35698;50.232;30.540;2022-07-12T11:11:34;0.80;;;0.43;;
49800;SDS011;35698;50.232;30.540;2022-07-12T11:12:40;0.96;;;0.38;;
49800;SDS011;35698;50.232;30.540;2022-07-12T11:13:53;1.70;;;0.42;;
49800;SDS011;35698;50.232;30.540;2022-07-12T11:14:58;1.58;;;0.41;;
49800;SDS011;35698;50.232;30.540;2022-07-12T11:16:11;2.04;;;0.51;;
49800;SDS011;35698;50.232;30.540;2022-07-12T11:17:15;0.59;;;0.40;;
49800;SDS011;35698;50.232;30.540;2022-07-12T11:18:38;1.29;;;0.33;;
49800;SDS011;35698;50.232;30.540;2022-07-12T11:19:42;2.82;;;0.43;;
49800;SDS011;35698;50.232;30.540;2022-07-12T11:20:57;0.31;;;0.24;;
49800;SDS011;35698;50.232;30.540;2022-07-12T11:22:01;0.82;;;0.28;;
49800;SDS011;35698;50.232;30.540;2022-07-12T11:23:05;1.48;;;0.38;;
49800;SDS011;35698;50.232;30.540;2022-07-12T11:24:38;1.83;;;0.39;;
49800;SDS011;35698;50.232;30.540;2022-07-12T11:25:42;1.33;;;0.55;;
49800;SDS011;35698;50.232;30.540;2022-07-12T11:26:55;3.09;;;0.40;;
49800;SDS011;35698;50.232;30.540;2022-07-12T11:27:59;0.43;;;0.35;;
49800;SDS011;35698;50.232;30.540;2022-07-12T11:29:12;0.43;;;0.27;;
49800;SDS011;35698;50.232;30.540;2022-07-12T11:30:17;1.22;;;0.31;;
49800;SDS011;35698;50.232;30.540;2022-07-12T11:31:32;2.44;;;0.51;;
49800;SDS011;35698;50.232;30.540;2022-07-12T11:32:36;0.91;;;0.43;;
49800;SDS011;35698;50.232;30.540;2022-07-12T11:33:50;1.40;;;0.57;;
49800;SDS011;35698;50.232;30.540;2022-07-12T11:34:53;0.35;;;0.30;;
49800;SDS011;35698;50.232;30.540;2022-07-12T11:37:21;1.51;;;0.44;;
49800;SDS011;35698;50.232;30.540;2022-07-12T11:38:25;2.06;;;0.41;;
49800;SDS011;35698;50.232;30.540;2022-07-12T11:39:41;1.15;;;0.40;;
49800;SDS011;35698;50.232;30.540;2022-07-12T11:40:45;0.54;;;0.39;;
49800;SDS011;35698;50.232;30.540;2022-07-12T11:42:00;2.90;;;0.54;;
49800;SDS011;35698;50.232;30.540;2022-07-12T11:43:04;0.86;;;0.30;;
49800;SDS011;35698;50.232;30.540;2022-07-12T11:44:19;0.55;;;0.44;;
49800;SDS011;35698;50.232;30.540;2022-07-12T11:45:33;1.41;;;0.38;;
49800;SDS011;35698;50.232;30.540;2022-07-12T11:46:41;2.82;;;0.74;;
49800;SDS011;35698;50.232;30.540;2022-07-12T11:48:18;1.05;;;0.44;;
49800;SDS011;35698;50.232;30.540;2022-07-12T11:49:22;3.70;;;0.42;;
49800;SDS011;35698;50.232;30.540;2022-07-12T11:50:33;2.79;;;0.31;;
49800;SDS011;35698;50.232;30.540;2022-07-12T11:51:39;2.99;;;0.63;;
49800;SDS011;35698;50.232;30.540;2022-07-12T11:52:50;0.50;;;0.40;;
49800;SDS011;35698;50.232;30.540;2022-07-12T11:53:58;2.04;;;0.48;;
49800;SDS011;35698;50.232;30.540;2022-07-12T11:55:12;0.58;;;0.32;;
49800;SDS011;35698;50.232;30.540;2022-07-12T11:56:16;0.49;;;0.44;;
49800;SDS011;35698;50.232;30.540;2022-07-12T11:57:28;4.11;;;0.56;;
49800;SDS011;35698;50.232;30.540;2022-07-12T11:58:32;2.28;;;0.49;;
49800;SDS011;35698;50.232;30.540;2022-07-12T11:59:52;0.50;;;0.40;;
49800;SDS011;35698;50.232;30.540;2022-07-12T12:00:55;1.06;;;0.54;;
49800;SDS011;35698;50.232;30.540;2022-07-12T12:02:07;0.71;;;0.59;;
49800;SDS011;35698;50.232;30.540;2022-07-12T12:03:17;0.67;;;0.61;;
49800;SDS011;35698;50.232;30.540;2022-07-12T12:04:30;1.32;;;0.55;;
49800;SDS011;35698;50.232;30.540;2022-07-12T12:05:36;1.06;;;0.60;;
49800;SDS011;35698;50.232;30.540;2022-07-12T12:06:48;2.19;;;0.42;;
49800;SDS011;35698;50.232;30.540;2022-07-12T12:07:52;1.38;;;0.61;;
49800;SDS011;35698;50.232;30.540;2022-07-12T12:09:14;1.11;;;0.50;;